Blackville, Arkansas
Current Conditions -  °F | °C
As of 9:56 PM on Wednesday 22 Oct 2014 (Local Time) from KM19 Reporting Station
Clear Clear  
Wind Chill: 51°   Ceiling: Unl
Heat Index: 51°   Visibility: 10mi
Dew Point: 44°   Wind: 6mph
Humidity: 77%   Direction: 310°NW
Pressure: 30.23"   Gusts: NA
Location:  35.5678°N, 91.2073°W
Report Text: KM19 230256Z AUTO 31005KT 10SM CLR 11/07 A3023 RMK AO2 53012 60000 T01050066 SLP235
Loading
Personal Weather Stations






























Interactive Weather Map
Tropical Storm Tracking
New forecast layout! Learn more

10-Day Weather Forecast

Advertisements
Track Severe Weather on mobile